Cosco Aden — VRKF9 — position and weather

sailwx.info

Track history (hours):
 
Tides and Currents Weather Stations Pressure Air Temp Water Temp Dewpoint Dewpoint Depression Visibility Wind Speed Wind Dir Waves Ship Positions

Cosco Aden

Last reported at 2016-Sep-11 22:30 UTC. Time now 2016-Sep-25 20:55 UTC.
Position N 25°55' W 115°32'.
Warning: this ship's position is 13 days out of date.

Length 261 m; draft 12.2 m.

Type: Other ship. MMSI: 477765900.

Date/timePositionNaut miles runAvg speedWind from/ knotsBaromVisibWave heightAir tempDewpointWater temp
2016-Sep-11 22:30N 25°55' W 115°32'4819.5
2016-Sep-11 20:03N 26°26' W 116°13'1019.2
2016-Sep-11 19:33N 26°32' W 116°22'1919.0
2016-Sep-11 18:32N 26°43' W 116°38'5518.6
2016-Sep-11 15:33N 27°18' W 117°27'36716.7
2016-Sep-10 17:33N 31°10' W 122°53'24816.2
2016-Sep-10 02:14N 33°51' W 126°37'3218.6
2016-Sep-10 00:32N 34°11' W 127°07'2018.4
2016-Sep-09 23:27N 34°23' W 127°25'1616.0
2016-Sep-09 22:27N 34°33' W 127°41'1615.6
2016-Sep-09 21:27N 34°43' W 127°55'8115.3
2016-Sep-09 16:09N 35°33' W 129°13'6914.7
2016-Sep-09 11:25N 36°16' W 130°21'1414.8
2016-Sep-09 10:27N 36°24' W 130°36'  
Track history (hours):
 
Tides and Currents Weather Stations Pressure Air Temp Water Temp Dewpoint Dewpoint Depression Visibility Wind Speed Wind Dir Waves Ship Positions

Cosco Aden

Last reported at 2016-Sep-11 22:30 UTC. Time now 2016-Sep-25 20:55 UTC.
Position N 25°55' W 115°32'.
Warning: this ship's position is 13 days out of date.

Length 261 m; draft 12.2 m.

Type: Other ship. MMSI: 477765900.

Date/timePositionNaut miles runAvg speedWind from/ knotsBaromVisibWave heightAir tempDewpointWater temp
2016-Sep-11 22:30N 25°55' W 115°32'4819.5
2016-Sep-11 20:03N 26°26' W 116°13'1019.2
2016-Sep-11 19:33N 26°32' W 116°22'1919.0
2016-Sep-11 18:32N 26°43' W 116°38'5518.6
2016-Sep-11 15:33N 27°18' W 117°27'36716.7
2016-Sep-10 17:33N 31°10' W 122°53'24816.2
2016-Sep-10 02:14N 33°51' W 126°37'3218.6
2016-Sep-10 00:32N 34°11' W 127°07'2018.4
2016-Sep-09 23:27N 34°23' W 127°25'1616.0
2016-Sep-09 22:27N 34°33' W 127°41'1615.6
2016-Sep-09 21:27N 34°43' W 127°55'8115.3
2016-Sep-09 16:09N 35°33' W 129°13'6914.7
2016-Sep-09 11:25N 36°16' W 130°21'1414.8
2016-Sep-09 10:27N 36°24' W 130°36'  

Dump ship's entire track history